sensor_id;sensor_type;location;lat;lon;timestamp;P1;durP1;ratioP1;P2;durP2;ratioP2
16442;SDS011;8331;51.654;14.376;2023-02-05T00:01:20;2.63;;;2.03;;
16442;SDS011;8331;51.654;14.376;2023-02-05T00:03:47;1.83;;;1.70;;
16442;SDS011;8331;51.654;14.376;2023-02-05T00:06:14;2.00;;;1.80;;
16442;SDS011;8331;51.654;14.376;2023-02-05T00:08:41;3.70;;;1.77;;
16442;SDS011;8331;51.654;14.376;2023-02-05T00:11:07;3.97;;;2.10;;
16442;SDS011;8331;51.654;14.376;2023-02-05T00:13:37;2.40;;;2.10;;
16442;SDS011;8331;51.654;14.376;2023-02-05T00:16:07;2.67;;;1.97;;
16442;SDS011;8331;51.654;14.376;2023-02-05T00:18:34;2.27;;;1.80;;
16442;SDS011;8331;51.654;14.376;2023-02-05T00:21:01;3.23;;;1.80;;
16442;SDS011;8331;51.654;14.376;2023-02-05T00:23:27;2.17;;;1.97;;
16442;SDS011;8331;51.654;14.376;2023-02-05T00:25:54;2.80;;;1.77;;
16442;SDS011;8331;51.654;14.376;2023-02-05T00:28:20;3.73;;;3.07;;
16442;SDS011;8331;51.654;14.376;2023-02-05T00:30:47;3.20;;;2.30;;
16442;SDS011;8331;51.654;14.376;2023-02-05T00:33:14;2.43;;;2.23;;
16442;SDS011;8331;51.654;14.376;2023-02-05T00:35:41;2.97;;;2.10;;
16442;SDS011;8331;51.654;14.376;2023-02-05T00:38:09;3.00;;;1.93;;
16442;SDS011;8331;51.654;14.376;2023-02-05T00:40:36;3.60;;;2.50;;
16442;SDS011;8331;51.654;14.376;2023-02-05T00:43:03;2.77;;;2.40;;
16442;SDS011;8331;51.654;14.376;2023-02-05T00:45:29;3.53;;;2.60;;
16442;SDS011;8331;51.654;14.376;2023-02-05T00:48:04;3.40;;;2.30;;
16442;SDS011;8331;51.654;14.376;2023-02-05T00:50:31;2.50;;;2.30;;
16442;SDS011;8331;51.654;14.376;2023-02-05T00:52:57;2.60;;;2.03;;
16442;SDS011;8331;51.654;14.376;2023-02-05T00:55:24;3.17;;;2.40;;
16442;SDS011;8331;51.654;14.376;2023-02-05T00:57:51;3.07;;;2.10;;
16442;SDS011;8331;51.654;14.376;2023-02-05T01:00:17;3.83;;;2.37;;
16442;SDS011;8331;51.654;14.376;2023-02-05T01:02:44;2.30;;;2.10;;
16442;SDS011;8331;51.654;14.376;2023-02-05T01:05:11;2.80;;;2.50;;
16442;SDS011;8331;51.654;14.376;2023-02-05T01:07:37;2.70;;;2.13;;
16442;SDS011;8331;51.654;14.376;2023-02-05T01:10:04;2.90;;;2.60;;
16442;SDS011;8331;51.654;14.376;2023-02-05T01:12:31;3.03;;;2.57;;
16442;SDS011;8331;51.654;14.376;2023-02-05T01:15:01;3.13;;;2.27;;
16442;SDS011;8331;51.654;14.376;2023-02-05T01:17:27;2.50;;;2.30;;
16442;SDS011;8331;51.654;14.376;2023-02-05T01:19:54;2.20;;;2.00;;
16442;SDS011;8331;51.654;14.376;2023-02-05T01:22:20;2.90;;;2.30;;
16442;SDS011;8331;51.654;14.376;2023-02-05T01:24:48;3.40;;;2.43;;
16442;SDS011;8331;51.654;14.376;2023-02-05T01:27:15;5.37;;;3.03;;
16442;SDS011;8331;51.654;14.376;2023-02-05T01:29:41;3.87;;;2.73;;
16442;SDS011;8331;51.654;14.376;2023-02-05T01:32:08;5.60;;;2.97;;
16442;SDS011;8331;51.654;14.376;2023-02-05T01:34:35;2.93;;;2.57;;
16442;SDS011;8331;51.654;14.376;2023-02-05T01:37:01;4.23;;;3.00;;
16442;SDS011;8331;51.654;14.376;2023-02-05T01:39:28;2.57;;;2.33;;
16442;SDS011;8331;51.654;14.376;2023-02-05T01:41:54;3.57;;;2.30;;
16442;SDS011;8331;51.654;14.376;2023-02-05T01:44:21;3.93;;;2.60;;
16442;SDS011;8331;51.654;14.376;2023-02-05T01:46:53;5.90;;;3.53;;
16442;SDS011;8331;51.654;14.376;2023-02-05T01:51:47;6.03;;;5.20;;
16442;SDS011;8331;51.654;14.376;2023-02-05T01:54:15;12.50;;;5.73;;
16442;SDS011;8331;51.654;14.376;2023-02-05T01:56:43;12.23;;;6.73;;
16442;SDS011;8331;51.654;14.376;2023-02-05T01:59:18;16.63;;;8.93;;
16442;SDS011;8331;51.654;14.376;2023-02-05T02:01:45;13.73;;;8.00;;
16442;SDS011;8331;51.654;14.376;2023-02-05T02:04:14;12.60;;;7.77;;
16442;SDS011;8331;51.654;14.376;2023-02-05T02:06:44;8.57;;;6.20;;
16442;SDS011;8331;51.654;14.376;2023-02-05T02:09:10;9.67;;;6.00;;
16442;SDS011;8331;51.654;14.376;2023-02-05T02:11:39;8.50;;;5.60;;
16442;SDS011;8331;51.654;14.376;2023-02-05T02:14:07;6.50;;;4.40;;
16442;SDS011;8331;51.654;14.376;2023-02-05T02:16:35;7.20;;;4.60;;
16442;SDS011;8331;51.654;14.376;2023-02-05T02:19:10;6.50;;;4.17;;
16442;SDS011;8331;51.654;14.376;2023-02-05T02:32:05;3.30;;;3.00;;
16442;SDS011;8331;51.654;14.376;2023-02-05T02:34:36;2.80;;;2.50;;
16442;SDS011;8331;51.654;14.376;2023-02-05T02:39:58;2.53;;;2.30;;
16442;SDS011;8331;51.654;14.376;2023-02-05T02:42:32;2.80;;;2.57;;
16442;SDS011;8331;51.654;14.376;2023-02-05T02:45:00;3.23;;;2.50;;
16442;SDS011;8331;51.654;14.376;2023-02-05T02:47:30;2.77;;;2.27;;
16442;SDS011;8331;51.654;14.376;2023-02-05T02:49:58;3.57;;;2.27;;
16442;SDS011;8331;51.654;14.376;2023-02-05T02:52:27;2.37;;;2.20;;
16442;SDS011;8331;51.654;14.376;2023-02-05T02:54:56;2.80;;;2.30;;
16442;SDS011;8331;51.654;14.376;2023-02-05T02:57:24;3.80;;;2.33;;
16442;SDS011;8331;51.654;14.376;2023-02-05T02:59:54;2.33;;;2.13;;
16442;SDS011;8331;51.654;14.376;2023-02-05T03:02:21;4.47;;;2.57;;
16442;SDS011;8331;51.654;14.376;2023-02-05T03:04:54;2.03;;;1.90;;
16442;SDS011;8331;51.654;14.376;2023-02-05T03:09:50;2.10;;;1.90;;
16442;SDS011;8331;51.654;14.376;2023-02-05T03:12:20;3.27;;;2.07;;
16442;SDS011;8331;51.654;14.376;2023-02-05T03:14:46;3.13;;;1.97;;
16442;SDS011;8331;51.654;14.376;2023-02-05T03:17:14;2.43;;;2.03;;
16442;SDS011;8331;51.654;14.376;2023-02-05T03:19:46;3.90;;;2.77;;
16442;SDS011;8331;51.654;14.376;2023-02-05T03:22:14;2.63;;;2.20;;
16442;SDS011;8331;51.654;14.376;2023-02-05T03:24:40;3.17;;;2.20;;
16442;SDS011;8331;51.654;14.376;2023-02-05T03:27:08;3.23;;;2.17;;
16442;SDS011;8331;51.654;14.376;2023-02-05T03:29:36;3.00;;;2.30;;
16442;SDS011;8331;51.654;14.376;2023-02-05T03:40:01;7.80;;;3.60;;
16442;SDS011;8331;51.654;14.376;2023-02-05T03:45:21;2.67;;;2.17;;
16442;SDS011;8331;51.654;14.376;2023-02-05T03:50:29;4.33;;;2.20;;
16442;SDS011;8331;51.654;14.376;2023-02-05T03:56:02;2.40;;;1.80;;
16442;SDS011;8331;51.654;14.376;2023-02-05T03:58:33;2.33;;;2.07;;
16442;SDS011;8331;51.654;14.376;2023-02-05T04:01:04;2.80;;;2.40;;
16442;SDS011;8331;51.654;14.376;2023-02-05T04:03:31;3.50;;;1.97;;
16442;SDS011;8331;51.654;14.376;2023-02-05T04:05:58;2.50;;;2.10;;
16442;SDS011;8331;51.654;14.376;2023-02-05T04:08:25;2.97;;;2.13;;
16442;SDS011;8331;51.654;14.376;2023-02-05T04:10:52;2.87;;;2.37;;
16442;SDS011;8331;51.654;14.376;2023-02-05T04:13:19;2.33;;;2.13;;
16442;SDS011;8331;51.654;14.376;2023-02-05T04:15:47;3.77;;;2.10;;
16442;SDS011;8331;51.654;14.376;2023-02-05T04:18:15;2.27;;;1.97;;
16442;SDS011;8331;51.654;14.376;2023-02-05T04:20:43;2.60;;;2.27;;
16442;SDS011;8331;51.654;14.376;2023-02-05T04:23:11;3.70;;;2.07;;
16442;SDS011;8331;51.654;14.376;2023-02-05T04:25:39;2.50;;;2.27;;
16442;SDS011;8331;51.654;14.376;2023-02-05T04:28:10;2.40;;;2.10;;
16442;SDS011;8331;51.654;14.376;2023-02-05T04:30:38;8.43;;;4.07;;
16442;SDS011;8331;51.654;14.376;2023-02-05T04:33:07;14.93;;;7.27;;
16442;SDS011;8331;51.654;14.376;2023-02-05T04:35:34;9.33;;;5.90;;
16442;SDS011;8331;51.654;14.376;2023-02-05T04:38:01;7.67;;;3.93;;
16442;SDS011;8331;51.654;14.376;2023-02-05T04:40:28;4.37;;;3.50;;
16442;SDS011;8331;51.654;14.376;2023-02-05T04:42:55;5.10;;;3.73;;
16442;SDS011;8331;51.654;14.376;2023-02-05T04:45:21;4.23;;;3.20;;
16442;SDS011;8331;51.654;14.376;2023-02-05T04:47:48;2.93;;;2.33;;
16442;SDS011;8331;51.654;14.376;2023-02-05T04:50:14;4.63;;;2.43;;
16442;SDS011;8331;51.654;14.376;2023-02-05T04:52:41;2.40;;;2.00;;
16442;SDS011;8331;51.654;14.376;2023-02-05T04:55:08;4.40;;;2.30;;
16442;SDS011;8331;51.654;14.376;2023-02-05T04:57:34;2.50;;;2.30;;
16442;SDS011;8331;51.654;14.376;2023-02-05T05:00:01;2.67;;;2.47;;
16442;SDS011;8331;51.654;14.376;2023-02-05T05:02:27;3.10;;;2.17;;
16442;SDS011;8331;51.654;14.376;2023-02-05T05:04:54;2.70;;;2.30;;
16442;SDS011;8331;51.654;14.376;2023-02-05T05:07:20;3.47;;;2.53;;
16442;SDS011;8331;51.654;14.376;2023-02-05T05:09:47;3.77;;;2.83;;
16442;SDS011;8331;51.654;14.376;2023-02-05T05:12:15;4.50;;;2.90;;
16442;SDS011;8331;51.654;14.376;2023-02-05T05:14:42;4.30;;;2.60;;
16442;SDS011;8331;51.654;14.376;2023-02-05T05:17:08;5.50;;;2.67;;
16442;SDS011;8331;51.654;14.376;2023-02-05T05:19:37;2.60;;;2.40;;
16442;SDS011;8331;51.654;14.376;2023-02-05T05:22:03;2.87;;;2.63;;
16442;SDS011;8331;51.654;14.376;2023-02-05T05:24:30;2.40;;;2.20;;
16442;SDS011;8331;51.654;14.376;2023-02-05T05:26:58;2.67;;;2.33;;
16442;SDS011;8331;51.654;14.376;2023-02-05T05:29:24;4.17;;;2.87;;
16442;SDS011;8331;51.654;14.376;2023-02-05T05:31:51;4.57;;;2.87;;
16442;SDS011;8331;51.654;14.376;2023-02-05T05:34:18;2.73;;;2.30;;
16442;SDS011;8331;51.654;14.376;2023-02-05T05:36:45;2.30;;;2.10;;
16442;SDS011;8331;51.654;14.376;2023-02-05T05:39:13;2.67;;;2.47;;
16442;SDS011;8331;51.654;14.376;2023-02-05T05:41:58;3.23;;;2.40;;
16442;SDS011;8331;51.654;14.376;2023-02-05T05:44:43;2.53;;;2.33;;
16442;SDS011;8331;51.654;14.376;2023-02-05T05:47:10;8.37;;;2.57;;
16442;SDS011;8331;51.654;14.376;2023-02-05T05:49:36;2.67;;;2.23;;
16442;SDS011;8331;51.654;14.376;2023-02-05T05:52:03;2.43;;;2.20;;
16442;SDS011;8331;51.654;14.376;2023-02-05T05:54:29;3.43;;;2.23;;
16442;SDS011;8331;51.654;14.376;2023-02-05T05:56:56;3.03;;;2.57;;
16442;SDS011;8331;51.654;14.376;2023-02-05T05:59:22;2.77;;;2.40;;
16442;SDS011;8331;51.654;14.376;2023-02-05T06:01:49;2.70;;;2.50;;
16442;SDS011;8331;51.654;14.376;2023-02-05T06:04:15;2.30;;;2.10;;
16442;SDS011;8331;51.654;14.376;2023-02-05T06:06:42;2.20;;;2.00;;
16442;SDS011;8331;51.654;14.376;2023-02-05T06:09:09;3.83;;;2.70;;
16442;SDS011;8331;51.654;14.376;2023-02-05T06:11:35;4.27;;;2.87;;
16442;SDS011;8331;51.654;14.376;2023-02-05T06:14:02;3.73;;;3.03;;
16442;SDS011;8331;51.654;14.376;2023-02-05T06:16:28;4.90;;;4.47;;
16442;SDS011;8331;51.654;14.376;2023-02-05T06:18:55;6.73;;;6.13;;
16442;SDS011;8331;51.654;14.376;2023-02-05T06:21:22;7.83;;;7.13;;
16442;SDS011;8331;51.654;14.376;2023-02-05T06:23:48;7.43;;;6.73;;
16442;SDS011;8331;51.654;14.376;2023-02-05T06:26:15;8.70;;;7.90;;
16442;SDS011;8331;51.654;14.376;2023-02-05T06:28:42;8.93;;;7.93;;
16442;SDS011;8331;51.654;14.376;2023-02-05T06:31:08;6.20;;;5.60;;
16442;SDS011;8331;51.654;14.376;2023-02-05T06:33:35;5.37;;;4.73;;
16442;SDS011;8331;51.654;14.376;2023-02-05T06:36:01;5.17;;;4.47;;
16442;SDS011;8331;51.654;14.376;2023-02-05T06:38:28;3.57;;;3.27;;
16442;SDS011;8331;51.654;14.376;2023-02-05T06:40:54;3.20;;;2.90;;
16442;SDS011;8331;51.654;14.376;2023-02-05T06:43:21;3.60;;;3.30;;
16442;SDS011;8331;51.654;14.376;2023-02-05T06:45:48;3.90;;;3.20;;
16442;SDS011;8331;51.654;14.376;2023-02-05T06:48:14;3.07;;;2.27;;
16442;SDS011;8331;51.654;14.376;2023-02-05T06:50:41;3.17;;;2.17;;
16442;SDS011;8331;51.654;14.376;2023-02-05T06:53:07;2.20;;;2.00;;
16442;SDS011;8331;51.654;14.376;2023-02-05T06:55:37;2.87;;;2.37;;
16442;SDS011;8331;51.654;14.376;2023-02-05T06:58:04;2.30;;;2.10;;
16442;SDS011;8331;51.654;14.376;2023-02-05T07:00:33;7.27;;;6.57;;
16442;SDS011;8331;51.654;14.376;2023-02-05T07:02:59;9.67;;;8.70;;
16442;SDS011;8331;51.654;14.376;2023-02-05T07:05:26;3.67;;;2.80;;
16442;SDS011;8331;51.654;14.376;2023-02-05T07:07:52;3.13;;;2.40;;
16442;SDS011;8331;51.654;14.376;2023-02-05T07:10:19;2.73;;;2.40;;
16442;SDS011;8331;51.654;14.376;2023-02-05T07:12:45;3.10;;;2.33;;
16442;SDS011;8331;51.654;14.376;2023-02-05T07:15:12;2.60;;;2.40;;
16442;SDS011;8331;51.654;14.376;2023-02-05T07:17:38;2.60;;;2.10;;
16442;SDS011;8331;51.654;14.376;2023-02-05T07:20:05;3.43;;;3.13;;
16442;SDS011;8331;51.654;14.376;2023-02-05T07:22:32;4.53;;;4.10;;
16442;SDS011;8331;51.654;14.376;2023-02-05T07:24:58;4.87;;;3.13;;
16442;SDS011;8331;51.654;14.376;2023-02-05T07:27:29;6.03;;;5.43;;
16442;SDS011;8331;51.654;14.376;2023-02-05T07:29:56;13.50;;;12.00;;
16442;SDS011;8331;51.654;14.376;2023-02-05T07:32:22;5.27;;;4.40;;
16442;SDS011;8331;51.654;14.376;2023-02-05T07:34:49;3.23;;;2.93;;
16442;SDS011;8331;51.654;14.376;2023-02-05T07:37:15;7.13;;;4.50;;
16442;SDS011;8331;51.654;14.376;2023-02-05T07:39:42;5.03;;;4.63;;
16442;SDS011;8331;51.654;14.376;2023-02-05T07:42:08;3.07;;;2.67;;
16442;SDS011;8331;51.654;14.376;2023-02-05T07:44:42;2.33;;;1.93;;
16442;SDS011;8331;51.654;14.376;2023-02-05T07:47:08;2.33;;;2.13;;
16442;SDS011;8331;51.654;14.376;2023-02-05T07:49:35;2.30;;;2.10;;
16442;SDS011;8331;51.654;14.376;2023-02-05T07:52:01;3.47;;;3.00;;
16442;SDS011;8331;51.654;14.376;2023-02-05T07:54:28;2.63;;;2.30;;
16442;SDS011;8331;51.654;14.376;2023-02-05T07:56:55;4.43;;;2.50;;
16442;SDS011;8331;51.654;14.376;2023-02-05T07:59:21;42.42;;;25.27;;
16442;SDS011;8331;51.654;14.376;2023-02-05T08:01:48;78.93;;;43.00;;
16442;SDS011;8331;51.654;14.376;2023-02-05T08:04:14;37.43;;;20.30;;
16442;SDS011;8331;51.654;14.376;2023-02-05T08:06:41;9.53;;;7.13;;
16442;SDS011;8331;51.654;14.376;2023-02-05T08:09:09;17.90;;;11.27;;
16442;SDS011;8331;51.654;14.376;2023-02-05T08:11:35;25.43;;;15.03;;
16442;SDS011;8331;51.654;14.376;2023-02-05T08:14:02;23.37;;;12.97;;
16442;SDS011;8331;51.654;14.376;2023-02-05T08:16:30;10.13;;;7.93;;
16442;SDS011;8331;51.654;14.376;2023-02-05T08:18:56;4.63;;;4.23;;
16442;SDS011;8331;51.654;14.376;2023-02-05T08:21:23;3.37;;;3.07;;
16442;SDS011;8331;51.654;14.376;2023-02-05T08:23:50;4.47;;;3.93;;
16442;SDS011;8331;51.654;14.376;2023-02-05T08:26:16;3.60;;;3.30;;
16442;SDS011;8331;51.654;14.376;2023-02-05T08:28:43;4.80;;;3.60;;
16442;SDS011;8331;51.654;14.376;2023-02-05T08:31:12;3.27;;;2.93;;
16442;SDS011;8331;51.654;14.376;2023-02-05T08:33:39;3.30;;;3.00;;
16442;SDS011;8331;51.654;14.376;2023-02-05T08:36:06;2.70;;;2.50;;
16442;SDS011;8331;51.654;14.376;2023-02-05T08:38:32;4.27;;;2.80;;
16442;SDS011;8331;51.654;14.376;2023-02-05T08:41:02;3.40;;;2.67;;
16442;SDS011;8331;51.654;14.376;2023-02-05T08:43:29;3.83;;;2.60;;
16442;SDS011;8331;51.654;14.376;2023-02-05T08:45:55;3.60;;;2.77;;
16442;SDS011;8331;51.654;14.376;2023-02-05T08:48:22;2.77;;;2.53;;
16442;SDS011;8331;51.654;14.376;2023-02-05T08:50:48;3.67;;;3.07;;
16442;SDS011;8331;51.654;14.376;2023-02-05T08:53:15;7.07;;;4.03;;
16442;SDS011;8331;51.654;14.376;2023-02-05T08:55:41;3.93;;;3.30;;
16442;SDS011;8331;51.654;14.376;2023-02-05T08:58:08;3.03;;;2.23;;
16442;SDS011;8331;51.654;14.376;2023-02-05T09:00:35;2.93;;;2.63;;
16442;SDS011;8331;51.654;14.376;2023-02-05T09:03:04;2.70;;;2.33;;
16442;SDS011;8331;51.654;14.376;2023-02-05T09:05:31;3.53;;;2.50;;
16442;SDS011;8331;51.654;14.376;2023-02-05T09:07:58;3.97;;;2.23;;
16442;SDS011;8331;51.654;14.376;2023-02-05T09:10:25;3.27;;;3.07;;
16442;SDS011;8331;51.654;14.376;2023-02-05T09:12:52;5.13;;;2.80;;
16442;SDS011;8331;51.654;14.376;2023-02-05T09:15:18;4.60;;;2.70;;
16442;SDS011;8331;51.654;14.376;2023-02-05T09:17:45;2.97;;;2.60;;
16442;SDS011;8331;51.654;14.376;2023-02-05T09:20:12;2.63;;;2.33;;
16442;SDS011;8331;51.654;14.376;2023-02-05T09:22:38;5.77;;;3.07;;
16442;SDS011;8331;51.654;14.376;2023-02-05T09:25:05;4.00;;;2.70;;
16442;SDS011;8331;51.654;14.376;2023-02-05T09:27:32;3.00;;;2.70;;
16442;SDS011;8331;51.654;14.376;2023-02-05T09:29:59;2.97;;;2.30;;
16442;SDS011;8331;51.654;14.376;2023-02-05T09:32:25;2.40;;;2.20;;
16442;SDS011;8331;51.654;14.376;2023-02-05T09:34:52;4.30;;;2.27;;
16442;SDS011;8331;51.654;14.376;2023-02-05T09:37:19;3.07;;;2.33;;
16442;SDS011;8331;51.654;14.376;2023-02-05T09:39:45;2.43;;;2.23;;
16442;SDS011;8331;51.654;14.376;2023-02-05T09:45:12;2.30;;;2.10;;
16442;SDS011;8331;51.654;14.376;2023-02-05T09:47:48;3.27;;;2.20;;
16442;SDS011;8331;51.654;14.376;2023-02-05T09:50:19;3.67;;;2.60;;
16442;SDS011;8331;51.654;14.376;2023-02-05T09:52:51;6.00;;;4.00;;
16442;SDS011;8331;51.654;14.376;2023-02-05T09:55:21;6.93;;;4.00;;
16442;SDS011;8331;51.654;14.376;2023-02-05T09:57:50;2.37;;;2.13;;
16442;SDS011;8331;51.654;14.376;2023-02-05T10:00:19;4.20;;;2.37;;
16442;SDS011;8331;51.654;14.376;2023-02-05T10:05:54;4.23;;;2.43;;
16442;SDS011;8331;51.654;14.376;2023-02-05T10:08:25;18.57;;;6.50;;
16442;SDS011;8331;51.654;14.376;2023-02-05T10:10:55;16.80;;;7.93;;
16442;SDS011;8331;51.654;14.376;2023-02-05T10:16:14;12.43;;;5.60;;
16442;SDS011;8331;51.654;14.376;2023-02-05T10:19:26;5.73;;;4.13;;
16442;SDS011;8331;51.654;14.376;2023-02-05T10:22:03;3.33;;;2.50;;
16442;SDS011;8331;51.654;14.376;2023-02-05T10:27:21;5.30;;;3.70;;
16442;SDS011;8331;51.654;14.376;2023-02-05T10:32:21;3.17;;;2.50;;
16442;SDS011;8331;51.654;14.376;2023-02-05T10:34:55;3.60;;;2.80;;
16442;SDS011;8331;51.654;14.376;2023-02-05T10:40:04;3.73;;;3.13;;
16442;SDS011;8331;51.654;14.376;2023-02-05T10:42:40;9.07;;;4.23;;
16442;SDS011;8331;51.654;14.376;2023-02-05T10:53:06;18.60;;;13.73;;
16442;SDS011;8331;51.654;14.376;2023-02-05T10:55:33;4.67;;;4.00;;
16442;SDS011;8331;51.654;14.376;2023-02-05T10:58:00;5.13;;;4.20;;
16442;SDS011;8331;51.654;14.376;2023-02-05T11:00:27;9.57;;;5.57;;
16442;SDS011;8331;51.654;14.376;2023-02-05T11:02:54;8.33;;;7.53;;
16442;SDS011;8331;51.654;14.376;2023-02-05T11:07:51;9.83;;;6.37;;
16442;SDS011;8331;51.654;14.376;2023-02-05T11:10:22;5.97;;;3.77;;
16442;SDS011;8331;51.654;14.376;2023-02-05T11:12:54;5.37;;;4.40;;
16442;SDS011;8331;51.654;14.376;2023-02-05T11:17:58;4.67;;;3.73;;
16442;SDS011;8331;51.654;14.376;2023-02-05T11:20:32;5.10;;;3.70;;
16442;SDS011;8331;51.654;14.376;2023-02-05T11:23:16;6.50;;;3.50;;
16442;SDS011;8331;51.654;14.376;2023-02-05T11:25:50;5.97;;;3.10;;
16442;SDS011;8331;51.654;14.376;2023-02-05T11:28:18;3.50;;;2.77;;
16442;SDS011;8331;51.654;14.376;2023-02-05T11:30:45;4.23;;;2.40;;
16442;SDS011;8331;51.654;14.376;2023-02-05T11:38:23;5.07;;;4.10;;
16442;SDS011;8331;51.654;14.376;2023-02-05T11:40:58;4.10;;;3.40;;
16442;SDS011;8331;51.654;14.376;2023-02-05T11:43:32;6.40;;;4.30;;
16442;SDS011;8331;51.654;14.376;2023-02-05T11:46:00;6.00;;;5.37;;
16442;SDS011;8331;51.654;14.376;2023-02-05T11:48:43;10.50;;;8.07;;
16442;SDS011;8331;51.654;14.376;2023-02-05T11:51:12;10.17;;;5.97;;
16442;SDS011;8331;51.654;14.376;2023-02-05T11:53:51;5.83;;;3.53;;
16442;SDS011;8331;51.654;14.376;2023-02-05T11:56:20;5.03;;;3.80;;
16442;SDS011;8331;51.654;14.376;2023-02-05T11:59:01;5.10;;;3.87;;
16442;SDS011;8331;51.654;14.376;2023-02-05T12:01:29;11.23;;;6.87;;
16442;SDS011;8331;51.654;14.376;2023-02-05T12:06:29;4.00;;;3.60;;
16442;SDS011;8331;51.654;14.376;2023-02-05T12:08:57;3.80;;;3.40;;
16442;SDS011;8331;51.654;14.376;2023-02-05T12:14:13;4.33;;;3.93;;
16442;SDS011;8331;51.654;14.376;2023-02-05T12:16:44;4.77;;;3.50;;
16442;SDS011;8331;51.654;14.376;2023-02-05T12:19:16;3.57;;;3.27;;
16442;SDS011;8331;51.654;14.376;2023-02-05T12:26:41;3.50;;;3.20;;
16442;SDS011;8331;51.654;14.376;2023-02-05T12:39:36;7.80;;;6.47;;
16442;SDS011;8331;51.654;14.376;2023-02-05T12:45:10;4.27;;;3.87;;
16442;SDS011;8331;51.654;14.376;2023-02-05T12:50:11;3.30;;;3.00;;
16442;SDS011;8331;51.654;14.376;2023-02-05T12:55:14;3.37;;;2.63;;
16442;SDS011;8331;51.654;14.376;2023-02-05T12:57:46;7.73;;;2.80;;
16442;SDS011;8331;51.654;14.376;2023-02-05T13:00:16;3.03;;;2.40;;
16442;SDS011;8331;51.654;14.376;2023-02-05T13:05:16;3.03;;;2.60;;
16442;SDS011;8331;51.654;14.376;2023-02-05T13:07:53;3.63;;;2.30;;
16442;SDS011;8331;51.654;14.376;2023-02-05T13:10:21;3.70;;;2.53;;
16442;SDS011;8331;51.654;14.376;2023-02-05T13:12:50;3.40;;;2.50;;
16442;SDS011;8331;51.654;14.376;2023-02-05T13:15:19;2.83;;;2.10;;
16442;SDS011;8331;51.654;14.376;2023-02-05T13:20:22;3.13;;;2.57;;
16442;SDS011;8331;51.654;14.376;2023-02-05T13:23:09;4.23;;;3.00;;
16442;SDS011;8331;51.654;14.376;2023-02-05T13:25:54;2.87;;;2.50;;
16442;SDS011;8331;51.654;14.376;2023-02-05T13:28:43;2.60;;;2.40;;
16442;SDS011;8331;51.654;14.376;2023-02-05T13:33:39;3.87;;;3.40;;
16442;SDS011;8331;51.654;14.376;2023-02-05T13:36:17;6.13;;;4.77;;
16442;SDS011;8331;51.654;14.376;2023-02-05T13:44:13;3.73;;;3.43;;
16442;SDS011;8331;51.654;14.376;2023-02-05T13:46:47;5.53;;;4.80;;
16442;SDS011;8331;51.654;14.376;2023-02-05T14:00:14;3.20;;;2.10;;
16442;SDS011;8331;51.654;14.376;2023-02-05T14:02:42;2.53;;;2.10;;
16442;SDS011;8331;51.654;14.376;2023-02-05T14:05:09;3.73;;;2.30;;
16442;SDS011;8331;51.654;14.376;2023-02-05T14:07:45;2.77;;;2.23;;
16442;SDS011;8331;51.654;14.376;2023-02-05T14:10:23;2.63;;;2.30;;
16442;SDS011;8331;51.654;14.376;2023-02-05T14:12:51;3.87;;;3.10;;
16442;SDS011;8331;51.654;14.376;2023-02-05T14:22:53;2.20;;;2.00;;
16442;SDS011;8331;51.654;14.376;2023-02-05T14:28:48;2.17;;;1.97;;
16442;SDS011;8331;51.654;14.376;2023-02-05T14:30:50;7.13;;;4.40;;
16442;SDS011;8331;51.654;14.376;2023-02-05T14:33:33;6.70;;;4.97;;
16442;SDS011;8331;51.654;14.376;2023-02-05T14:38:43;4.47;;;3.60;;
16442;SDS011;8331;51.654;14.376;2023-02-05T14:41:11;3.73;;;3.27;;
16442;SDS011;8331;51.654;14.376;2023-02-05T14:43:39;3.07;;;2.50;;
16442;SDS011;8331;51.654;14.376;2023-02-05T14:46:19;2.90;;;2.37;;
16442;SDS011;8331;51.654;14.376;2023-02-05T14:48:46;7.17;;;5.57;;
16442;SDS011;8331;51.654;14.376;2023-02-05T14:53:39;9.93;;;6.47;;
16442;SDS011;8331;51.654;14.376;2023-02-05T14:56:06;9.10;;;5.37;;
16442;SDS011;8331;51.654;14.376;2023-02-05T14:58:37;5.63;;;4.83;;
16442;SDS011;8331;51.654;14.376;2023-02-05T15:03:51;7.90;;;4.40;;
16442;SDS011;8331;51.654;14.376;2023-02-05T15:06:18;7.30;;;5.37;;
16442;SDS011;8331;51.654;14.376;2023-02-05T15:08:49;5.77;;;5.17;;
16442;SDS011;8331;51.654;14.376;2023-02-05T15:16:46;3.97;;;1.90;;
16442;SDS011;8331;51.654;14.376;2023-02-05T15:19:12;2.73;;;2.20;;
16442;SDS011;8331;51.654;14.376;2023-02-05T15:21:42;2.30;;;1.73;;
16442;SDS011;8331;51.654;14.376;2023-02-05T15:24:12;1.80;;;1.67;;
16442;SDS011;8331;51.654;14.376;2023-02-05T15:26:41;1.50;;;1.40;;
16442;SDS011;8331;51.654;14.376;2023-02-05T15:34:18;1.97;;;1.73;;
16442;SDS011;8331;51.654;14.376;2023-02-05T15:37:21;2.93;;;1.73;;
16442;SDS011;8331;51.654;14.376;2023-02-05T15:39:45;1.90;;;1.60;;
16442;SDS011;8331;51.654;14.376;2023-02-05T15:42:14;3.70;;;1.43;;
16442;SDS011;8331;51.654;14.376;2023-02-05T15:44:42;2.10;;;1.90;;
16442;SDS011;8331;51.654;14.376;2023-02-05T15:47:19;2.43;;;2.17;;
16442;SDS011;8331;51.654;14.376;2023-02-05T15:49:47;8.10;;;4.50;;
16442;SDS011;8331;51.654;14.376;2023-02-05T15:52:19;22.57;;;12.27;;
16442;SDS011;8331;51.654;14.376;2023-02-05T15:54:46;18.03;;;10.93;;
16442;SDS011;8331;51.654;14.376;2023-02-05T15:57:17;4.73;;;3.30;;
16442;SDS011;8331;51.654;14.376;2023-02-05T15:59:45;2.90;;;2.70;;
16442;SDS011;8331;51.654;14.376;2023-02-05T16:02:22;3.70;;;3.30;;
16442;SDS011;8331;51.654;14.376;2023-02-05T16:04:56;2.73;;;2.50;;
16442;SDS011;8331;51.654;14.376;2023-02-05T16:07:25;3.00;;;2.67;;
16442;SDS011;8331;51.654;14.376;2023-02-05T16:09:56;3.87;;;3.57;;
16442;SDS011;8331;51.654;14.376;2023-02-05T16:12:23;5.90;;;5.30;;
16442;SDS011;8331;51.654;14.376;2023-02-05T16:15:03;7.30;;;6.60;;
16442;SDS011;8331;51.654;14.376;2023-02-05T16:17:35;7.10;;;6.40;;
16442;SDS011;8331;51.654;14.376;2023-02-05T16:22:44;11.83;;;9.03;;
16442;SDS011;8331;51.654;14.376;2023-02-05T16:27:46;21.77;;;14.07;;
16442;SDS011;8331;51.654;14.376;2023-02-05T16:30:26;22.20;;;15.57;;
16442;SDS011;8331;51.654;14.376;2023-02-05T16:32:56;20.17;;;15.90;;
16442;SDS011;8331;51.654;14.376;2023-02-05T16:35:26;23.03;;;17.60;;
16442;SDS011;8331;51.654;14.376;2023-02-05T16:37:54;20.23;;;14.57;;
16442;SDS011;8331;51.654;14.376;2023-02-05T16:40:31;14.23;;;10.77;;
16442;SDS011;8331;51.654;14.376;2023-02-05T16:43:16;10.30;;;8.13;;
16442;SDS011;8331;51.654;14.376;2023-02-05T16:48:28;13.73;;;8.07;;
16442;SDS011;8331;51.654;14.376;2023-02-05T16:50:55;8.97;;;7.30;;
16442;SDS011;8331;51.654;14.376;2023-02-05T16:53:24;11.37;;;8.83;;
16442;SDS011;8331;51.654;14.376;2023-02-05T16:55:53;11.27;;;9.37;;
16442;SDS011;8331;51.654;14.376;2023-02-05T16:58:24;35.90;;;20.73;;
16442;SDS011;8331;51.654;14.376;2023-02-05T17:00:53;22.03;;;14.83;;
16442;SDS011;8331;51.654;14.376;2023-02-05T17:03:20;20.20;;;13.40;;
16442;SDS011;8331;51.654;14.376;2023-02-05T17:05:54;15.90;;;11.63;;
16442;SDS011;8331;51.654;14.376;2023-02-05T17:08:27;10.73;;;9.63;;
16442;SDS011;8331;51.654;14.376;2023-02-05T17:10:57;8.40;;;7.13;;
16442;SDS011;8331;51.654;14.376;2023-02-05T17:15:53;23.67;;;13.20;;
16442;SDS011;8331;51.654;14.376;2023-02-05T17:18:21;16.13;;;11.10;;
16442;SDS011;8331;51.654;14.376;2023-02-05T17:20:48;16.73;;;11.20;;
16442;SDS011;8331;51.654;14.376;2023-02-05T17:23:16;22.00;;;14.53;;
16442;SDS011;8331;51.654;14.376;2023-02-05T17:28:13;27.93;;;20.00;;
16442;SDS011;8331;51.654;14.376;2023-02-05T17:30:42;30.67;;;23.50;;
16442;SDS011;8331;51.654;14.376;2023-02-05T17:33:08;27.87;;;22.03;;
16442;SDS011;8331;51.654;14.376;2023-02-05T17:35:39;20.73;;;16.70;;
16442;SDS011;8331;51.654;14.376;2023-02-05T17:38:05;18.50;;;16.50;;
16442;SDS011;8331;51.654;14.376;2023-02-05T17:40:32;25.87;;;21.40;;